createdAt,value
2019-02-21T00:00:39.475Z,1025.13
2019-02-21T00:01:40.041Z,1025.16
2019-02-21T00:02:40.610Z,1025.02
2019-02-21T00:03:41.183Z,1025.04
2019-02-21T00:04:41.747Z,1025.03
2019-02-21T00:05:42.320Z,1025.06
2019-02-21T00:06:42.888Z,1025.09
2019-02-21T00:07:43.456Z,1025.09
2019-02-21T00:08:44.037Z,1025.13
2019-02-21T00:09:44.690Z,1025.07
2019-02-21T00:10:45.259Z,1025.06
2019-02-21T00:11:45.879Z,1025.10
2019-02-21T00:12:46.448Z,1025.10
2019-02-21T00:13:47.016Z,1025.10
2019-02-21T00:14:47.585Z,1025.10
2019-02-21T00:15:48.156Z,1025.01
2019-02-21T00:16:48.767Z,1025.02
2019-02-21T00:17:49.335Z,1025.06
2019-02-21T00:18:49.907Z,1025.02
2019-02-21T00:19:50.477Z,1024.96
2019-02-21T00:20:51.080Z,1025.10
2019-02-21T00:21:51.616Z,1025.05
2019-02-21T00:22:52.187Z,1025.04
2019-02-21T00:23:52.807Z,1025.08
2019-02-21T00:24:53.374Z,1025.09
2019-02-21T00:25:55.837Z,1025.05
2019-02-21T00:26:55.506Z,1025.08
2019-02-21T00:27:56.075Z,1025.11
2019-02-21T00:28:56.650Z,1025.04
2019-02-21T00:29:57.309Z,1025.19
2019-02-21T00:30:57.928Z,1025.10
2019-02-21T00:31:58.597Z,1025.05
2019-02-21T00:32:59.270Z,1025.08
2019-02-21T00:33:59.888Z,1025.13
2019-02-21T00:35:00.407Z,1025.11
2019-02-21T00:36:01.008Z,1025.03
2019-02-21T00:37:01.587Z,1025.08
2019-02-21T00:38:02.156Z,1025.15
2019-02-21T00:39:02.725Z,1025.12
2019-02-21T00:40:03.295Z,1025.17
2019-02-21T00:41:03.868Z,1025.17
2019-02-21T00:42:04.434Z,1025.18
2019-02-21T00:43:05.003Z,1025.19
2019-02-21T00:44:05.570Z,1025.21
2019-02-21T00:45:06.185Z,1025.22
2019-02-21T00:46:06.762Z,1025.22
2019-02-21T00:47:07.363Z,1025.18
2019-02-21T00:48:07.933Z,1025.14
2019-02-21T00:49:08.554Z,1025.14
2019-02-21T00:50:09.176Z,1025.18
2019-02-21T00:51:09.745Z,1025.16
2019-02-21T00:52:10.315Z,1025.19
2019-02-21T00:53:10.884Z,1025.24
2019-02-21T00:54:11.453Z,1025.22
2019-02-21T00:55:12.030Z,1025.13
2019-02-21T00:56:12.592Z,1025.13
2019-02-21T00:57:13.161Z,1025.19
2019-02-21T00:58:13.728Z,1025.08
2019-02-21T00:59:14.299Z,1025.07
2019-02-21T01:00:14.870Z,1025.08
2019-02-21T01:01:15.440Z,1025.11
2019-02-21T01:02:16.014Z,1025.06
2019-02-21T01:03:16.629Z,1025.03
2019-02-21T01:04:17.203Z,1025.05
2019-02-21T01:05:17.967Z,1025.13
2019-02-21T01:06:18.534Z,1024.99
2019-02-21T01:07:19.152Z,1025.06
2019-02-21T01:08:19.728Z,1025.08
2019-02-21T01:09:20.291Z,1025.08
2019-02-21T01:10:20.858Z,1025.07
2019-02-21T01:11:21.482Z,1025.02
2019-02-21T01:12:22.048Z,1024.98
2019-02-21T01:13:22.660Z,1025.00
2019-02-21T01:14:23.274Z,1024.88
2019-02-21T01:15:23.842Z,1024.90
2019-02-21T01:16:24.421Z,1024.92
2019-02-21T01:17:24.979Z,1024.91
2019-02-21T01:18:25.547Z,1024.87
2019-02-21T01:19:26.118Z,1024.82
2019-02-21T01:20:26.736Z,1024.78
2019-02-21T01:21:27.355Z,1024.86
2019-02-21T01:22:27.923Z,1024.79
2019-02-21T01:23:28.492Z,1024.84
2019-02-21T01:24:29.110Z,1024.80
2019-02-21T01:25:29.678Z,1024.74
2019-02-21T01:26:30.254Z,1024.75
2019-02-21T01:27:30.862Z,1024.77
2019-02-21T01:28:31.432Z,1024.86
2019-02-21T01:29:32.011Z,1024.82
2019-02-21T01:30:32.577Z,1024.79
2019-02-21T01:31:33.148Z,1024.84
2019-02-21T01:32:33.716Z,1024.83
2019-02-21T01:33:34.398Z,1024.85
2019-02-21T01:34:34.932Z,1024.88
2019-02-21T01:35:35.592Z,1024.85
2019-02-21T01:36:36.162Z,1024.81
2019-02-21T01:37:36.732Z,1024.80
2019-02-21T01:38:37.300Z,1024.80
2019-02-21T01:39:37.922Z,1024.82
2019-02-21T01:40:38.489Z,1024.74
2019-02-21T01:41:39.073Z,1024.76
2019-02-21T01:42:39.632Z,1024.79
2019-02-21T01:43:40.243Z,1024.78
2019-02-21T01:44:40.810Z,1024.75
2019-02-21T01:45:41.378Z,1024.72
2019-02-21T01:46:42.000Z,1024.82
2019-02-21T01:47:42.521Z,1024.74
2019-02-21T01:48:43.092Z,1024.79
2019-02-21T01:49:43.657Z,1024.77
2019-02-21T01:50:44.230Z,1024.81
2019-02-21T01:51:44.794Z,1024.78
2019-02-21T01:52:45.362Z,1024.78
2019-02-21T01:53:45.934Z,1024.77
2019-02-21T01:54:46.501Z,1024.84
2019-02-21T01:55:47.068Z,1024.81
2019-02-21T01:56:47.639Z,1024.82
2019-02-21T01:57:48.407Z,1024.79
2019-02-21T01:58:48.977Z,1024.88
2019-02-21T01:59:49.596Z,1024.80
2019-02-21T02:00:50.166Z,1024.83
2019-02-21T02:01:50.735Z,1024.77
2019-02-21T02:02:51.302Z,1024.78
2019-02-21T02:03:51.915Z,1024.77
2019-02-21T02:04:52.483Z,1024.76
2019-02-21T02:05:53.094Z,1024.73
2019-02-21T02:06:53.664Z,1024.75
2019-02-21T02:07:54.232Z,1024.71
2019-02-21T02:08:54.810Z,1024.71
2019-02-21T02:09:55.371Z,1024.62
2019-02-21T02:10:55.981Z,1024.69
2019-02-21T02:11:56.599Z,1024.64
2019-02-21T02:12:57.172Z,1024.70
2019-02-21T02:13:57.740Z,1024.72
2019-02-21T02:14:58.459Z,1024.73
2019-02-21T02:15:59.026Z,1024.64
2019-02-21T02:16:59.597Z,1024.72
2019-02-21T02:18:00.215Z,1024.64
2019-02-21T02:19:00.786Z,1024.52
2019-02-21T02:20:01.358Z,1024.61
2019-02-21T02:21:01.926Z,1024.57
2019-02-21T02:22:02.493Z,1024.67
2019-02-21T02:23:03.073Z,1024.65
2019-02-21T02:24:03.637Z,1024.63
2019-02-21T02:25:04.203Z,1024.64
2019-02-21T02:26:04.774Z,1024.59
2019-02-21T02:27:05.343Z,1024.59
2019-02-21T02:28:05.913Z,1024.59
2019-02-21T02:29:06.481Z,1024.59
2019-02-21T02:30:07.164Z,1024.51
2019-02-21T02:31:21.491Z,1024.58
2019-02-21T02:32:09.770Z,1024.58
2019-02-21T02:33:10.490Z,1024.56
2019-02-21T02:34:11.103Z,1024.58
2019-02-21T02:35:11.721Z,1024.61
2019-02-21T02:36:12.290Z,1024.57
2019-02-21T02:37:12.856Z,1024.55
2019-02-21T02:38:13.424Z,1024.54
2019-02-21T02:39:13.992Z,1024.59
2019-02-21T02:40:14.564Z,1024.58
2019-02-21T02:41:15.129Z,1024.55
2019-02-21T02:42:15.698Z,1024.65
2019-02-21T02:43:16.267Z,1024.55
2019-02-21T02:44:16.835Z,1024.57
2019-02-21T02:45:17.559Z,1024.54
2019-02-21T02:46:18.133Z,1024.57
2019-02-21T02:47:18.695Z,1024.50
2019-02-21T02:48:19.262Z,1024.52
2019-02-21T02:49:19.835Z,1024.55
2019-02-21T02:50:20.404Z,1024.40
2019-02-21T02:51:20.976Z,1024.41
2019-02-21T02:52:21.542Z,1024.37
2019-02-21T02:53:22.113Z,1024.37
2019-02-21T02:54:22.738Z,1024.47
2019-02-21T02:55:23.299Z,1024.46
2019-02-21T02:56:23.868Z,1024.41
2019-02-21T02:57:24.436Z,1024.37
2019-02-21T02:58:25.012Z,1024.36
2019-02-21T02:59:25.577Z,1024.38
2019-02-21T03:00:26.217Z,1024.40
2019-02-21T03:01:34.804Z,1024.37
2019-02-21T03:02:28.346Z,1024.42
2019-02-21T03:03:28.914Z,1024.36
2019-02-21T03:04:29.692Z,1024.35
2019-02-21T03:05:30.129Z,1024.26
2019-02-21T03:06:30.696Z,1024.33
2019-02-21T03:07:31.263Z,1024.37
2019-02-21T03:08:31.985Z,1024.43
2019-02-21T03:09:32.552Z,1024.32
2019-02-21T03:10:46.883Z,1024.35
2019-02-21T03:11:47.451Z,1024.31
2019-02-21T03:12:48.020Z,1024.35
2019-02-21T03:13:48.596Z,1024.42
2019-02-21T03:14:49.157Z,1024.43
2019-02-21T03:15:49.727Z,1024.38
2019-02-21T03:16:50.313Z,1024.46
2019-02-21T03:17:50.914Z,1024.40
2019-02-21T03:18:51.524Z,1024.39
2019-02-21T03:19:52.100Z,1024.39
2019-02-21T03:20:52.661Z,1024.39
2019-02-21T03:21:53.231Z,1024.33
2019-02-21T03:22:53.799Z,1024.28
2019-02-21T03:23:54.371Z,1024.28
2019-02-21T03:24:54.936Z,1024.21
2019-02-21T03:25:55.514Z,1024.27
2019-02-21T03:26:56.169Z,1024.22
2019-02-21T03:27:56.736Z,1024.18
2019-02-21T03:28:57.312Z,1024.22
2019-02-21T03:29:57.875Z,1024.21
2019-02-21T03:30:58.444Z,1024.17
2019-02-21T03:31:59.017Z,1024.17
2019-02-21T03:32:59.582Z,1024.13
2019-02-21T03:34:00.152Z,1024.15
2019-02-21T03:35:00.746Z,1024.17
2019-02-21T03:36:01.292Z,1024.21
2019-02-21T03:37:01.856Z,1024.23
2019-02-21T03:38:02.437Z,1024.23
2019-02-21T03:39:02.995Z,1024.23
2019-02-21T03:40:03.562Z,1024.23
2019-02-21T03:41:04.175Z,1024.22
2019-02-21T03:42:04.741Z,1024.22
2019-02-21T03:43:05.310Z,1024.23
2019-02-21T03:44:05.883Z,1024.22
2019-02-21T03:45:06.446Z,1024.23
2019-02-21T03:46:07.016Z,1024.16
2019-02-21T03:47:07.585Z,1024.17
2019-02-21T03:48:08.154Z,1024.08
2019-02-21T03:49:08.722Z,1024.11
2019-02-21T03:50:09.290Z,1024.16
2019-02-21T03:51:09.861Z,1024.07
2019-02-21T03:52:10.480Z,1024.14
2019-02-21T03:53:11.096Z,1024.11
2019-02-21T03:54:11.663Z,1024.07
2019-02-21T03:55:12.229Z,1024.07
2019-02-21T03:56:12.798Z,1024.06
2019-02-21T03:57:13.369Z,1023.98
2019-02-21T03:58:13.937Z,1023.97
2019-02-21T03:59:14.505Z,1024.01
2019-02-21T04:00:15.082Z,1024.07
2019-02-21T04:01:15.737Z,1023.98
2019-02-21T04:02:16.306Z,1023.96
2019-02-21T04:03:16.877Z,1024.05
2019-02-21T04:04:17.489Z,1024.00
2019-02-21T04:05:18.056Z,1023.96
2019-02-21T04:06:18.630Z,1024.03
2019-02-21T04:07:21.642Z,1024.05
2019-02-21T04:08:20.758Z,1024.02
2019-02-21T04:09:21.331Z,1024.02
2019-02-21T04:10:21.894Z,1023.95
2019-02-21T04:11:22.465Z,1024.09
2019-02-21T04:12:23.083Z,1024.04
2019-02-21T04:13:23.653Z,1024.09
2019-02-21T04:14:24.220Z,1024.10
2019-02-21T04:15:24.791Z,1024.11
2019-02-21T04:16:25.358Z,1024.15
2019-02-21T04:17:25.927Z,1024.10
2019-02-21T04:18:26.492Z,1024.13
2019-02-21T04:19:27.062Z,1024.05
2019-02-21T04:20:27.635Z,1024.08
2019-02-21T04:21:28.198Z,1024.06
2019-02-21T04:22:28.816Z,1024.13
2019-02-21T04:23:29.383Z,1024.04
2019-02-21T04:24:29.969Z,1024.06
2019-02-21T04:25:30.617Z,1024.09
2019-02-21T04:26:31.182Z,1024.07
2019-02-21T04:27:31.749Z,1024.13
2019-02-21T04:28:32.320Z,1024.06
2019-02-21T04:29:32.894Z,1024.07
2019-02-21T04:30:33.456Z,1024.03
2019-02-21T04:31:34.027Z,1024.12
2019-02-21T04:32:34.595Z,1024.00
2019-02-21T04:33:35.181Z,1023.96
2019-02-21T04:34:35.777Z,1024.00
2019-02-21T04:35:36.346Z,1024.04
2019-02-21T04:36:36.965Z,1023.98
2019-02-21T04:37:37.546Z,1023.97
2019-02-21T04:38:38.102Z,1023.97
2019-02-21T04:39:38.669Z,1024.00
2019-02-21T04:40:39.243Z,1024.01
2019-02-21T04:41:39.804Z,1023.99
2019-02-21T04:42:40.423Z,1024.05
2019-02-21T04:43:41.043Z,1024.05
2019-02-21T04:44:41.640Z,1024.05
2019-02-21T04:45:42.212Z,1024.02
2019-02-21T04:46:42.780Z,1024.06
2019-02-21T04:47:43.346Z,1024.04
2019-02-21T04:48:43.917Z,1024.06
2019-02-21T04:49:44.484Z,1024.05
2019-02-21T04:50:45.050Z,1024.06
2019-02-21T04:51:45.619Z,1024.14
2019-02-21T04:52:46.186Z,1024.03
2019-02-21T04:53:46.756Z,1024.03
2019-02-21T04:54:47.323Z,1024.01
2019-02-21T04:55:47.895Z,1023.98
2019-02-21T04:56:48.459Z,1024.04
2019-02-21T04:57:49.078Z,1024.06
2019-02-21T04:58:49.647Z,1024.02
2019-02-21T04:59:50.214Z,1024.05
2019-02-21T05:00:50.780Z,1024.04
2019-02-21T05:01:51.398Z,1024.00
2019-02-21T05:02:52.116Z,1024.05
2019-02-21T05:03:52.686Z,1024.09
2019-02-21T05:04:53.253Z,1024.15
2019-02-21T05:05:53.823Z,1024.09
2019-02-21T05:06:54.395Z,1024.09
2019-02-21T05:07:54.959Z,1024.12
2019-02-21T05:08:55.538Z,1024.13
2019-02-21T05:09:58.338Z,1024.10
2019-02-21T05:10:57.692Z,1024.17
2019-02-21T05:11:58.263Z,1024.05
2019-02-21T05:12:58.836Z,1024.16
2019-02-21T05:13:59.407Z,1024.09
2019-02-21T05:14:59.971Z,1024.17
2019-02-21T05:16:00.538Z,1024.21
2019-02-21T05:17:01.117Z,1024.24
2019-02-21T05:18:01.725Z,1024.12
2019-02-21T05:19:02.272Z,1024.15
2019-02-21T05:20:02.841Z,1024.12
2019-02-21T05:21:03.410Z,1024.20
2019-02-21T05:22:03.978Z,1024.20
2019-02-21T05:23:04.601Z,1024.12
2019-02-21T05:24:05.167Z,1024.05
2019-02-21T05:25:05.853Z,1024.16
2019-02-21T05:26:06.402Z,1024.15
2019-02-21T05:27:07.006Z,1024.06
2019-02-21T05:28:07.575Z,1024.11
2019-02-21T05:29:08.195Z,1024.16
2019-02-21T05:30:08.762Z,1024.12
2019-02-21T05:31:09.330Z,1024.13
2019-02-21T05:32:09.900Z,1024.15
2019-02-21T05:33:10.580Z,1024.13
2019-02-21T05:34:11.120Z,1024.13
2019-02-21T05:35:11.681Z,1024.10
2019-02-21T05:36:12.248Z,1024.13
2019-02-21T05:37:12.816Z,1024.10
2019-02-21T05:38:13.404Z,1024.15
2019-02-21T05:39:14.011Z,1024.10
2019-02-21T05:40:14.635Z,1024.06
2019-02-21T05:41:15.202Z,1024.12
2019-02-21T05:42:15.781Z,1024.11
2019-02-21T05:43:16.339Z,1024.15
2019-02-21T05:44:16.921Z,1024.14
2019-02-21T05:45:17.518Z,1024.20
2019-02-21T05:46:18.089Z,1024.21
2019-02-21T05:47:18.666Z,1024.24
2019-02-21T05:48:19.246Z,1024.26
2019-02-21T05:49:19.897Z,1024.29
2019-02-21T05:50:20.490Z,1024.19
2019-02-21T05:51:21.066Z,1024.20
2019-02-21T05:52:21.642Z,1024.27
2019-02-21T05:53:22.215Z,1024.17
2019-02-21T05:56:25.921Z,1024.27
2019-02-21T05:57:26.544Z,1024.25
2019-02-21T05:58:27.124Z,1024.20
2019-02-21T05:59:27.689Z,1024.26
2019-02-21T06:00:42.070Z,1024.24
2019-02-21T06:01:56.389Z,1024.27
2019-02-21T06:02:56.968Z,1024.18
2019-02-21T06:03:57.586Z,1024.28
2019-02-21T06:04:58.162Z,1024.29
2019-02-21T06:05:58.874Z,1024.21
2019-02-21T06:06:59.459Z,1024.24
2019-02-21T06:10:36.846Z,1024.20
2019-02-21T06:12:52.836Z,1024.28
2019-02-21T06:15:56.643Z,1024.28
2019-02-21T06:16:57.277Z,1024.30
2019-02-21T06:17:58.006Z,1024.24
2019-02-21T06:18:58.577Z,1024.36
2019-02-21T06:19:59.152Z,1024.29
2019-02-21T06:20:59.726Z,1024.39
2019-02-21T06:22:10.082Z,1024.38
2019-02-21T06:23:01.868Z,1024.32
2019-02-21T06:24:02.496Z,1024.38
2019-02-21T06:25:03.111Z,1024.36
2019-02-21T06:26:03.717Z,1024.38
2019-02-21T06:27:04.281Z,1024.37
2019-02-21T06:29:40.190Z,1024.31
2019-02-21T06:31:50.685Z,1024.32
2019-02-21T06:34:06.677Z,1024.25
2019-02-21T06:39:13.546Z,1024.41
2019-02-21T06:40:14.110Z,1024.42
2019-02-21T06:41:14.725Z,1024.38
2019-02-21T06:42:15.300Z,1024.38
2019-02-21T06:43:15.879Z,1024.39
2019-02-21T06:44:16.451Z,1024.33
2019-02-21T06:45:18.193Z,1024.41
2019-02-21T06:46:17.683Z,1024.34
2019-02-21T06:47:18.258Z,1024.30
2019-02-21T06:48:18.827Z,1024.34
2019-02-21T06:49:19.401Z,1024.30
2019-02-21T06:50:26.892Z,1024.27
2019-02-21T06:51:21.593Z,1024.20
2019-02-21T06:52:22.167Z,1024.25
2019-02-21T06:53:22.821Z,1024.27
2019-02-21T06:54:23.358Z,1024.32
2019-02-21T06:55:23.932Z,1024.26
2019-02-21T06:56:24.506Z,1024.26
2019-02-21T06:57:25.082Z,1024.27
2019-02-21T06:58:25.655Z,1024.26
2019-02-21T06:59:26.237Z,1024.22
2019-02-21T07:00:26.806Z,1024.30
2019-02-21T07:01:29.549Z,1024.25
2019-02-21T07:02:28.946Z,1024.21
2019-02-21T07:03:29.521Z,1024.18
2019-02-21T07:04:30.093Z,1024.20
2019-02-21T07:05:30.667Z,1024.16
2019-02-21T07:06:32.416Z,1024.16
2019-02-21T07:07:32.807Z,1024.07
2019-02-21T07:08:33.382Z,1024.14
2019-02-21T07:09:33.954Z,1024.15
2019-02-21T07:10:34.684Z,1024.16
2019-02-21T07:11:35.305Z,1024.23
2019-02-21T07:12:36.028Z,1024.24
2019-02-21T07:13:36.603Z,1024.23
2019-02-21T07:14:37.177Z,1024.19
2019-02-21T07:15:37.743Z,1024.18
2019-02-21T07:16:38.315Z,1024.19
2019-02-21T07:17:48.473Z,1024.25
2019-02-21T07:18:40.957Z,1024.19
2019-02-21T07:19:41.569Z,1024.15
2019-02-21T07:20:42.142Z,1024.29
2019-02-21T07:21:42.745Z,1024.27
2019-02-21T07:22:43.291Z,1024.27
2019-02-21T07:23:43.958Z,1024.27
2019-02-21T07:24:44.480Z,1024.32
2019-02-21T07:25:45.059Z,1024.32
2019-02-21T07:26:45.628Z,1024.26
2019-02-21T07:27:46.203Z,1024.20
2019-02-21T07:28:46.776Z,1024.28
2019-02-21T07:29:47.400Z,1024.30
2019-02-21T07:30:48.039Z,1024.29
2019-02-21T07:31:49.378Z,1024.29
2019-02-21T07:32:50.140Z,1024.37
2019-02-21T07:33:50.722Z,1024.32
2019-02-21T07:34:51.288Z,1024.39
2019-02-21T07:35:51.866Z,1024.35
2019-02-21T07:36:52.444Z,1024.41
2019-02-21T07:37:53.009Z,1024.44
2019-02-21T07:39:08.484Z,1024.40
2019-02-21T07:39:55.149Z,1024.45
2019-02-21T07:40:55.825Z,1024.42
2019-02-21T07:41:56.405Z,1024.46
2019-02-21T07:42:58.683Z,1024.46
2019-02-21T07:43:58.541Z,1024.51
2019-02-21T07:44:59.807Z,1024.56
2019-02-21T07:46:00.386Z,1024.60
2019-02-21T07:47:00.957Z,1024.50
2019-02-21T07:48:01.529Z,1024.62
2019-02-21T07:49:02.102Z,1024.58
2019-02-21T07:50:02.684Z,1024.59
2019-02-21T07:51:03.248Z,1024.65
2019-02-21T07:52:05.569Z,1024.74
2019-02-21T07:53:05.385Z,1024.63
2019-02-21T07:54:05.982Z,1024.73
2019-02-21T07:55:06.534Z,1024.76
2019-02-21T07:56:07.106Z,1024.76
2019-02-21T07:57:08.636Z,1024.77
2019-02-21T07:58:09.290Z,1024.78
2019-02-21T07:59:12.043Z,1024.83
2019-02-21T08:00:11.428Z,1024.84
2019-02-21T08:01:12.004Z,1024.82
2019-02-21T08:02:12.584Z,1024.82
2019-02-21T08:03:13.154Z,1024.89
2019-02-21T08:04:13.768Z,1024.92
2019-02-21T08:05:14.399Z,1024.93
2019-02-21T08:06:15.016Z,1024.85
2019-02-21T08:07:15.588Z,1024.94
2019-02-21T08:08:16.173Z,1024.98
2019-02-21T08:09:18.890Z,1024.93
2019-02-21T08:10:21.038Z,1024.96
2019-02-21T08:11:19.881Z,1024.93
2019-02-21T08:12:23.101Z,1024.95
2019-02-21T08:13:22.057Z,1024.97
2019-02-21T08:14:22.672Z,1025.03
2019-02-21T08:15:23.257Z,1025.00
2019-02-21T08:16:23.855Z,1025.01
2019-02-21T08:17:24.429Z,1025.01
2019-02-21T08:18:25.007Z,1025.06
2019-02-21T08:19:25.576Z,1025.04
2019-02-21T08:20:33.693Z,1025.00
2019-02-21T08:21:27.725Z,1025.10
2019-02-21T08:22:28.289Z,1025.10
2019-02-21T08:23:28.919Z,1025.10
2019-02-21T08:24:29.488Z,1025.12
2019-02-21T08:25:30.066Z,1025.16
2019-02-21T08:26:30.670Z,1025.11
2019-02-21T08:27:31.224Z,1025.18
2019-02-21T08:28:31.787Z,1025.07
2019-02-21T08:29:32.361Z,1025.13
2019-02-21T08:30:33.168Z,1025.08
2019-02-21T08:31:33.694Z,1025.03
2019-02-21T08:32:34.318Z,1025.04
2019-02-21T08:33:34.890Z,1025.05
2019-02-21T08:34:35.464Z,1025.06
2019-02-21T08:35:36.039Z,1025.02
2019-02-21T08:36:36.615Z,1025.04
2019-02-21T08:37:37.190Z,1025.02
2019-02-21T08:38:37.767Z,1025.03
2019-02-21T08:39:38.343Z,1025.11
2019-02-21T08:40:38.914Z,1025.10
2019-02-21T08:41:39.538Z,1025.08
2019-02-21T08:42:40.113Z,1025.17
2019-02-21T08:43:40.688Z,1025.08
2019-02-21T08:44:41.263Z,1025.07
2019-02-21T08:45:41.837Z,1025.06
2019-02-21T08:46:42.413Z,1025.18
2019-02-21T08:47:42.986Z,1025.07
2019-02-21T08:48:43.565Z,1025.14
2019-02-21T08:49:44.186Z,1025.10
2019-02-21T08:50:44.812Z,1025.12
2019-02-21T08:51:45.439Z,1025.11
2019-02-21T08:52:46.012Z,1025.17
2019-02-21T08:53:46.589Z,1025.13
2019-02-21T08:54:47.162Z,1025.13
2019-02-21T08:55:47.735Z,1025.24
2019-02-21T08:56:48.307Z,1025.25
2019-02-21T08:57:48.882Z,1025.13
2019-02-21T08:58:49.456Z,1025.12
2019-02-21T08:59:50.032Z,1025.13
2019-02-21T09:00:50.607Z,1025.16
2019-02-21T09:01:51.183Z,1025.20
2019-02-21T09:02:51.757Z,1025.20
2019-02-21T09:03:52.330Z,1025.29
2019-02-21T09:04:52.904Z,1025.19
2019-02-21T09:05:53.477Z,1025.26
2019-02-21T09:06:54.051Z,1025.26
2019-02-21T09:07:54.672Z,1025.30
2019-02-21T09:08:55.246Z,1025.27
2019-02-21T09:09:55.837Z,1025.35
2019-02-21T09:10:56.397Z,1025.33
2019-02-21T09:11:56.974Z,1025.34
2019-02-21T09:12:57.551Z,1025.30
2019-02-21T09:13:58.118Z,1025.21
2019-02-21T09:14:58.693Z,1025.40
2019-02-21T09:15:59.284Z,1025.32
2019-02-21T09:16:59.847Z,1025.33
2019-02-21T09:18:00.426Z,1025.37
2019-02-21T09:19:01.001Z,1025.36
2019-02-21T09:20:01.683Z,1025.35
2019-02-21T09:21:02.226Z,1025.35
2019-02-21T09:22:02.802Z,1025.45
2019-02-21T09:23:03.378Z,1025.48
2019-02-21T09:24:04.003Z,1025.46
2019-02-21T09:25:04.581Z,1025.40
2019-02-21T09:26:05.164Z,1025.38
2019-02-21T09:27:05.736Z,1025.44
2019-02-21T09:28:06.321Z,1025.45
2019-02-21T09:29:06.927Z,1025.37
2019-02-21T09:30:07.553Z,1025.31
2019-02-21T09:31:08.129Z,1025.44
2019-02-21T09:32:08.705Z,1025.32
2019-02-21T09:33:16.955Z,1025.31
2019-02-21T09:34:20.633Z,1025.36
2019-02-21T09:35:12.423Z,1025.37
2019-02-21T09:36:13.004Z,1025.28
2019-02-21T09:37:13.580Z,1025.43
2019-02-21T09:38:14.158Z,1025.35
2019-02-21T09:39:16.035Z,1025.36
2019-02-21T09:40:15.403Z,1025.38
2019-02-21T09:41:16.093Z,1025.43
2019-02-21T09:42:16.626Z,1025.36
2019-02-21T09:43:17.204Z,1025.44
2019-02-21T09:44:18.283Z,1025.51
2019-02-21T09:45:18.859Z,1025.43
2019-02-21T09:46:19.437Z,1025.53
2019-02-21T09:47:20.019Z,1025.57
2019-02-21T09:48:20.597Z,1025.48
2019-02-21T09:49:21.177Z,1025.52
2019-02-21T09:50:21.756Z,1025.50
2019-02-21T09:51:22.386Z,1025.52
2019-02-21T09:52:22.962Z,1025.52
2019-02-21T09:53:23.543Z,1025.49
2019-02-21T09:54:24.218Z,1025.39
2019-02-21T09:55:24.792Z,1025.45
2019-02-21T09:56:30.255Z,1025.44
2019-02-21T09:57:26.942Z,1025.39
2019-02-21T09:58:27.524Z,1025.42
2019-02-21T09:59:28.832Z,1025.41
2019-02-21T10:00:28.726Z,1025.38
2019-02-21T10:01:29.347Z,1025.40
2019-02-21T10:02:29.925Z,1025.44
2019-02-21T10:03:30.507Z,1025.42
2019-02-21T10:04:32.475Z,1025.43
2019-02-21T10:05:32.704Z,1025.49
2019-02-21T10:06:33.284Z,1025.43
2019-02-21T10:07:33.862Z,1025.40
2019-02-21T10:08:34.440Z,1025.33
2019-02-21T10:09:35.017Z,1025.33
2019-02-21T10:10:35.744Z,1025.36
2019-02-21T10:11:36.324Z,1025.39
2019-02-21T10:12:37.052Z,1025.40
2019-02-21T10:13:37.629Z,1025.32
2019-02-21T10:14:38.265Z,1025.36
2019-02-21T10:15:38.836Z,1025.29
2019-02-21T10:16:39.419Z,1025.26
2019-02-21T10:17:39.994Z,1025.25
2019-02-21T10:18:40.577Z,1025.23
2019-02-21T10:19:41.156Z,1025.26
2019-02-21T10:20:41.736Z,1025.20
2019-02-21T10:21:42.367Z,1025.25
2019-02-21T10:22:42.947Z,1025.15
2019-02-21T10:23:43.526Z,1025.23
2019-02-21T10:24:44.106Z,1025.20
2019-02-21T10:25:44.687Z,1025.18
2019-02-21T10:26:45.319Z,1025.15
2019-02-21T10:27:45.902Z,1025.07
2019-02-21T10:28:46.530Z,1025.09
2019-02-21T10:29:47.110Z,1025.07
2019-02-21T10:30:47.691Z,1025.10
2019-02-21T10:31:48.273Z,1025.08
2019-02-21T10:32:48.852Z,1025.11
2019-02-21T10:33:49.435Z,1025.02
2019-02-21T10:34:50.016Z,1025.08
2019-02-21T10:35:50.595Z,1025.13
2019-02-21T10:36:51.173Z,1025.13
2019-02-21T10:37:51.755Z,1025.04
2019-02-21T10:38:52.335Z,1025.07
2019-02-21T10:39:52.965Z,1024.97
2019-02-21T10:40:53.546Z,1024.98
2019-02-21T10:41:54.127Z,1025.01
2019-02-21T10:42:54.707Z,1025.00
2019-02-21T10:43:55.290Z,1025.06
2019-02-21T10:44:55.919Z,1025.06
2019-02-21T10:45:56.501Z,1025.06
2019-02-21T10:46:57.082Z,1025.11
2019-02-21T10:47:57.660Z,1025.14
2019-02-21T10:48:58.258Z,1025.09
2019-02-21T10:49:58.837Z,1025.17
2019-02-21T10:50:59.420Z,1025.13
2019-02-21T10:52:00.001Z,1025.19
2019-02-21T10:53:00.582Z,1025.20
2019-02-21T10:54:01.165Z,1025.22
2019-02-21T10:55:01.747Z,1025.24
2019-02-21T10:56:02.329Z,1025.31
2019-02-21T10:57:02.911Z,1025.33
2019-02-21T10:58:03.494Z,1025.36
2019-02-21T10:59:04.078Z,1025.37
2019-02-21T11:00:04.667Z,1025.45
2019-02-21T11:01:05.238Z,1025.41
2019-02-21T11:02:05.869Z,1025.50
2019-02-21T11:03:06.452Z,1025.44
2019-02-21T11:04:07.035Z,1025.44
2019-02-21T11:05:07.659Z,1025.45
2019-02-21T11:06:08.240Z,1025.56
2019-02-21T11:07:08.873Z,1025.65
2019-02-21T11:08:09.453Z,1025.54
2019-02-21T11:09:10.036Z,1025.66
2019-02-21T11:10:10.616Z,1025.62
2019-02-21T11:11:11.197Z,1025.63
2019-02-21T11:12:11.779Z,1025.71
2019-02-21T11:13:12.362Z,1025.71
2019-02-21T11:14:12.941Z,1025.71
2019-02-21T11:15:13.521Z,1025.69
2019-02-21T11:16:14.105Z,1025.68
2019-02-21T11:17:14.689Z,1025.73
2019-02-21T11:18:15.319Z,1025.77
2019-02-21T11:19:15.905Z,1025.80
2019-02-21T11:20:16.486Z,1025.81
2019-02-21T11:21:17.069Z,1025.79
2019-02-21T11:22:17.651Z,1025.84
2019-02-21T11:23:18.233Z,1025.85
2019-02-21T11:24:18.818Z,1025.90
2019-02-21T11:25:19.444Z,1025.87
2019-02-21T11:26:20.025Z,1025.85
2019-02-21T11:27:20.607Z,1025.83
2019-02-21T11:28:21.190Z,1025.92
2019-02-21T11:29:21.772Z,1025.90
2019-02-21T11:30:22.354Z,1025.92
2019-02-21T11:31:22.950Z,1025.92
2019-02-21T11:32:23.526Z,1025.99
2019-02-21T11:33:24.102Z,1025.99
2019-02-21T11:34:24.686Z,1025.95
2019-02-21T11:35:25.318Z,1025.99
2019-02-21T11:36:25.900Z,1026.00
2019-02-21T11:37:26.482Z,1026.01
2019-02-21T11:38:27.067Z,1025.98
2019-02-21T11:39:27.646Z,1025.99
2019-02-21T11:40:28.228Z,1025.94
2019-02-21T11:41:28.810Z,1025.93
2019-02-21T11:42:29.451Z,1025.98
2019-02-21T11:43:30.023Z,1025.87
2019-02-21T11:44:30.605Z,1026.01
2019-02-21T11:45:31.185Z,1026.02
2019-02-21T11:46:31.769Z,1025.96
2019-02-21T11:47:32.400Z,1026.02
2019-02-21T11:48:32.981Z,1025.99
2019-02-21T11:49:33.564Z,1026.07
2019-02-21T11:50:34.148Z,1026.10
2019-02-21T11:51:34.819Z,1026.02
2019-02-21T11:52:35.443Z,1025.96
2019-02-21T11:53:38.043Z,1025.91
2019-02-21T11:54:37.601Z,1025.88
2019-02-21T11:55:38.211Z,1025.91
2019-02-21T11:56:38.769Z,1025.94
2019-02-21T11:57:39.399Z,1025.94
2019-02-21T11:58:39.980Z,1025.92
2019-02-21T11:59:40.614Z,1025.96
2019-02-21T12:00:41.347Z,1025.91
2019-02-21T12:01:41.971Z,1025.97
2019-02-21T12:02:42.556Z,1026.00
2019-02-21T12:03:43.133Z,1025.98
2019-02-21T12:04:43.715Z,1025.95
2019-02-21T12:05:44.303Z,1025.89
2019-02-21T12:06:44.931Z,1025.88
2019-02-21T12:07:45.554Z,1025.92
2019-02-21T12:08:46.136Z,1025.92
2019-02-21T12:09:46.717Z,1025.96
2019-02-21T12:10:47.297Z,1025.90
2019-02-21T12:11:47.882Z,1025.85
2019-02-21T12:12:48.459Z,1025.85
2019-02-21T12:13:49.039Z,1025.91
2019-02-21T12:14:49.620Z,1025.95
2019-02-21T12:15:50.252Z,1025.90
2019-02-21T12:16:50.833Z,1025.83
2019-02-21T12:17:51.415Z,1025.80
2019-02-21T12:18:51.995Z,1025.82
2019-02-21T12:19:52.576Z,1025.84
2019-02-21T12:20:53.156Z,1025.82
2019-02-21T12:21:59.123Z,1025.74
2019-02-21T12:22:55.310Z,1025.74
2019-02-21T12:23:55.945Z,1025.75
2019-02-21T12:24:56.523Z,1025.77
2019-02-21T12:25:57.103Z,1025.73
2019-02-21T12:26:57.688Z,1025.62
2019-02-21T12:27:58.266Z,1025.61
2019-02-21T12:28:58.846Z,1025.65
2019-02-21T12:29:59.426Z,1025.60